»·PEaware :: AAL9750 SAEZ-KMIA

AAL9750 :: SAEZ-KMIA

FLIGHT INFORMATION

Flight Status: Arrived
Operator:
American Airlines
More flights by this operator :: More flights under this callsign
Pilot: Drew L. (13237)
Aircraft: BOEING 737-800
(B738)
More flights by this aircraft type
Origin: SAEZ Ministro Pistarini Intl
Argentina
Destination: KMIA Miami Intl
United States
More flights between these airports :: More routes between these airports
Route: BIVA2A BIVAM UN775 PILCO UM784 LOKOX UL417 NIRBO/N0449F400 UL417 BORDO FLIPR FLIPR5
File this flight plan on PilotEdge
Remarks: PBN / A1B1C1D1S1S2 DOF / 180203 REG / N806SB EET / SARR0045 SACF0133 SARR0143 SGFA0146 SLLF0149 SBAZ0328 SKED0427 SKEC0603 MKJK0659 MUFH0736 KZMA0817 OPR / AAL PER / C RMK / TCAS SIMBRIEF
Altitude:
(Current/Filed)
38,000ft
Speed:
(Current/Filed)
448kts
Departed: 02-Feb-18 11:06 PM
Arrived: 03-Feb-18 07:51 AM
Distance/Time
Traveled:
3841nm/8:44
Distance/Time
To Go:
Arrived

Flight Plot

Page will automatically refresh every two minutes.

Flight plan parsing failed; only flown route is shown


Map Options




Map Legend


Flown Route
Filed Route
Departure Airport
Arrival Airport
Navaid (VOR, NDB)
Fix

Horizontal Profiles

Position Reports

Time Latitude Longitude Heading Altitude Ground
Speed
02-Feb-18 22:59 -34.825335 -58.518708 282 72ft 0kts
02-Feb-18 23:00 -34.825335 -58.518708 282 72ft 0kts
02-Feb-18 23:01 -34.825335 -58.518708 282 72ft 0kts
02-Feb-18 23:02 -34.825335 -58.518708 282 71ft 0kts
02-Feb-18 23:03 -34.825335 -58.518708 282 71ft 0kts
02-Feb-18 23:04 -34.825335 -58.518708 282 71ft 0kts
02-Feb-18 23:05 -34.825335 -58.518708 282 71ft 0kts
02-Feb-18 23:06 -34.825335 -58.518708 282 71ft 0kts
02-Feb-18 23:07 -34.825335 -58.518708 282 71ft 0kts
02-Feb-18 23:08 -34.825335 -58.518708 282 71ft 0kts
02-Feb-18 23:09 -34.825335 -58.518708 282 71ft 0kts
02-Feb-18 23:10 -34.825335 -58.518708 282 71ft 0kts
02-Feb-18 23:11 -34.825317 -58.518815 282 71ft 6kts
02-Feb-18 23:12 -34.817417 -58.559991 285 1014ft 201kts
02-Feb-18 23:13 -34.802247 -58.638019 313 4022ft 270kts
02-Feb-18 23:14 -34.731695 -58.673077 343 7323ft 287kts
02-Feb-18 23:15 -34.653257 -58.701405 342 10307ft 308kts
02-Feb-18 23:16 -34.565553 -58.733020 341 12918ft 341kts
02-Feb-18 23:17 -34.472602 -58.766459 341 15924ft 360kts
02-Feb-18 23:18 -34.374200 -58.801784 340 18705ft 379kts
02-Feb-18 23:19 -34.271037 -58.838731 339 21218ft 397kts
02-Feb-18 23:20 -34.163438 -58.877161 339 23502ft 413kts
02-Feb-18 23:21 -34.051517 -58.917011 339 25599ft 428kts
02-Feb-18 23:22 -33.935757 -58.957769 339 27526ft 442kts
02-Feb-18 23:23 -33.816593 -58.998083 338 29349ft 452kts
02-Feb-18 23:24 -33.696651 -59.038520 337 31433ft 447kts
02-Feb-18 23:25 -33.577425 -59.078743 337 33232ft 444kts
02-Feb-18 23:26 -33.459318 -59.118600 336 34822ft 441kts
02-Feb-18 23:27 -33.342090 -59.158166 336 36222ft 438kts
02-Feb-18 23:28 -33.225081 -59.197665 336 37372ft 438kts
02-Feb-18 23:29 -33.107516 -59.237389 336 37999ft 448kts
02-Feb-18 23:30 -32.984675 -59.278900 337 38007ft 473kts
02-Feb-18 23:31 -32.855657 -59.322424 337 37982ft 490kts
02-Feb-18 23:32 -32.725309 -59.366406 337 37987ft 489kts
02-Feb-18 23:33 -32.595205 -59.410347 337 37988ft 489kts
02-Feb-18 23:34 -32.464527 -59.454487 337 37990ft 489kts
02-Feb-18 23:35 -32.333655 -59.496538 338 37991ft 490kts
02-Feb-18 23:36 -32.202561 -59.537804 338 37993ft 490kts
02-Feb-18 23:37 -32.071257 -59.579148 338 37995ft 490kts
02-Feb-18 23:38 -31.940126 -59.620445 338 37996ft 490kts
02-Feb-18 23:39 -31.809461 -59.661624 339 37993ft 490kts
02-Feb-18 23:40 -31.678125 -59.703034 339 37992ft 490kts
02-Feb-18 23:41 -31.547009 -59.744342 339 37988ft 489kts
02-Feb-18 23:42 -31.416038 -59.785615 339 37952ft 490kts
02-Feb-18 23:43 -31.296686 -59.823227 339 37916ft 489kts
02-Feb-18 23:44 -31.165571 -59.864550 339 37918ft 490kts
02-Feb-18 23:45 -31.034775 -59.905779 338 37919ft 490kts
02-Feb-18 23:46 -30.903333 -59.947116 339 37921ft 492kts
02-Feb-18 23:47 -30.771885 -59.988263 339 37908ft 492kts
02-Feb-18 23:48 -30.640079 -60.029524 339 37909ft 492kts
02-Feb-18 23:49 -30.508070 -60.070855 339 37911ft 492kts
02-Feb-18 23:50 -30.376100 -60.112179 339 37912ft 492kts
02-Feb-18 23:51 -30.244523 -60.153384 339 37886ft 492kts
02-Feb-18 23:52 -30.112555 -60.194282 339 37866ft 493kts
02-Feb-18 23:53 -29.980366 -60.235008 339 37864ft 493kts
02-Feb-18 23:54 -29.848567 -60.275608 339 37849ft 492kts
02-Feb-18 23:55 -29.716935 -60.316164 339 37852ft 493kts
02-Feb-18 23:56 -29.584751 -60.356888 339 37854ft 492kts
02-Feb-18 23:57 -29.453273 -60.397407 339 37856ft 492kts
02-Feb-18 23:58 -29.321259 -60.437701 339 37857ft 492kts
02-Feb-18 23:59 -29.189240 -60.477758 339 37859ft 492kts
03-Feb-18 00:00 -29.057093 -60.517859 339 37860ft 490kts
03-Feb-18 00:01 -28.926475 -60.557494 340 37861ft 486kts
03-Feb-18 00:02 -28.798442 -60.596342 340 37850ft 486kts
03-Feb-18 00:03 -28.667586 -60.635740 340 37852ft 486kts
03-Feb-18 00:04 -28.537334 -60.674831 341 37858ft 487kts
03-Feb-18 00:05 -28.406812 -60.713974 341 37860ft 487kts
03-Feb-18 00:07 -28.276355 -60.753089 341 37862ft 487kts
03-Feb-18 00:08 -28.145616 -60.791945 341 37863ft 487kts
03-Feb-18 00:08 -28.037092 -60.824038 341 37864ft 487kts
03-Feb-18 00:09 -27.906377 -60.862686 341 37866ft 487kts
03-Feb-18 00:11 -27.754247 -60.907668 341 37855ft 487kts
03-Feb-18 00:12 -27.623913 -60.946207 341 37856ft 487kts
03-Feb-18 00:12 -27.515414 -60.978298 341 37857ft 486kts
03-Feb-18 00:13 -27.385303 -61.016782 341 37859ft 484kts
03-Feb-18 00:15 -27.234089 -61.061388 341 37861ft 481kts
03-Feb-18 00:15 -27.126608 -61.092663 341 37861ft 480kts
03-Feb-18 00:16 -26.998296 -61.129971 342 37862ft 477kts
03-Feb-18 00:17 -26.871356 -61.166883 343 37853ft 469kts
03-Feb-18 00:18 -26.745725 -61.203403 343 37856ft 468kts
03-Feb-18 00:19 -26.619836 -61.240006 343 37856ft 468kts
03-Feb-18 00:20 -26.494455 -61.276467 343 37857ft 468kts
03-Feb-18 00:21 -26.368448 -61.312557 343 37858ft 468kts
03-Feb-18 00:22 -26.242907 -61.348273 343 37858ft 468kts
03-Feb-18 00:23 -26.116804 -61.384136 343 37859ft 468kts
03-Feb-18 00:24 -25.990969 -61.419927 343 37860ft 468kts
03-Feb-18 00:25 -25.865734 -61.455551 343 37852ft 468kts
03-Feb-18 00:26 -25.739921 -61.491345 343 37855ft 468kts
03-Feb-18 00:27 -25.614082 -61.527148 343 37856ft 468kts
03-Feb-18 00:28 -25.488643 -61.562843 343 37856ft 468kts
03-Feb-18 00:29 -25.362798 -61.598656 343 37857ft 468kts
03-Feb-18 00:30 -25.236981 -61.634465 343 37876ft 468kts
03-Feb-18 00:31 -25.111606 -61.670169 343 38004ft 468kts
03-Feb-18 00:32 -24.986297 -61.705859 344 38022ft 462kts
03-Feb-18 00:33 -24.862645 -61.741050 344 38018ft 461kts
03-Feb-18 00:34 -24.738772 -61.775957 344 38019ft 461kts
03-Feb-18 00:35 -24.614781 -61.810538 344 38019ft 461kts
03-Feb-18 00:36 -24.490808 -61.845110 344 38020ft 461kts
03-Feb-18 00:37 -24.366969 -61.879647 344 38020ft 461kts
03-Feb-18 00:38 -24.243331 -61.914131 344 38021ft 461kts
03-Feb-18 00:39 -24.119104 -61.948782 344 38021ft 461kts
03-Feb-18 00:40 -23.995436 -61.982974 344 38022ft 461kts
03-Feb-18 00:41 -23.871440 -62.016893 344 38017ft 461kts
03-Feb-18 00:42 -23.747732 -62.050706 344 38019ft 461kts
03-Feb-18 00:43 -23.623703 -62.084608 344 38019ft 461kts
03-Feb-18 00:44 -23.499722 -62.118500 344 38020ft 461kts
03-Feb-18 00:45 -23.375619 -62.152430 344 38020ft 461kts
03-Feb-18 00:46 -23.251605 -62.186338 344 38021ft 461kts
03-Feb-18 00:47 -23.127614 -62.220244 344 38021ft 461kts
03-Feb-18 00:48 -23.003651 -62.254153 345 38022ft 461kts
03-Feb-18 00:49 -22.880483 -62.287849 345 38019ft 458kts
03-Feb-18 00:50 -22.757242 -62.321545 345 38019ft 458kts
03-Feb-18 00:51 -22.633731 -62.355330 345 38020ft 458kts
03-Feb-18 00:52 -22.510453 -62.389054 345 38020ft 458kts
03-Feb-18 00:53 -22.388731 -62.426258 333 38021ft 458kts
03-Feb-18 00:54 -22.275542 -62.489595 332 38020ft 458kts
03-Feb-18 00:55 -22.162746 -62.552186 332 38021ft 458kts
03-Feb-18 00:56 -22.049630 -62.614844 332 38022ft 458kts
03-Feb-18 00:57 -21.936945 -62.677276 332 38021ft 458kts
03-Feb-18 00:58 -21.824278 -62.739710 332 38019ft 458kts
03-Feb-18 00:59 -21.711330 -62.802311 332 38019ft 458kts
03-Feb-18 01:00 -21.598446 -62.864889 332 38019ft 458kts
03-Feb-18 01:01 -21.485454 -62.927544 332 38020ft 458kts
03-Feb-18 01:02 -21.372739 -62.990057 332 37976ft 457kts
03-Feb-18 01:03 -21.260221 -63.052642 332 37885ft 457kts
03-Feb-18 01:04 -21.147894 -63.114964 332 37886ft 456kts
03-Feb-18 01:05 -21.035812 -63.177026 333 37885ft 453kts
03-Feb-18 01:06 -20.924583 -63.238607 333 37885ft 450kts
03-Feb-18 01:07 -20.814309 -63.299674 333 37885ft 450kts
03-Feb-18 01:08 -20.703529 -63.361039 333 37885ft 450kts
03-Feb-18 01:09 -20.592673 -63.422462 333 37885ft 450kts
03-Feb-18 01:10 -20.481575 -63.484033 333 37886ft 450kts
03-Feb-18 01:11 -20.370842 -63.545416 333 37886ft 450kts
03-Feb-18 01:12 -20.259540 -63.607113 332 37886ft 455kts
03-Feb-18 01:13 -20.148631 -63.668634 332 37885ft 454kts
03-Feb-18 01:14 -20.037151 -63.730476 332 37885ft 454kts
03-Feb-18 01:15 -19.925097 -63.792646 332 37885ft 454kts
03-Feb-18 01:16 -19.815421 -63.853799 330 37881ft 454kts
03-Feb-18 01:17 -19.707566 -63.922454 329 37884ft 454kts
03-Feb-18 01:18 -19.599269 -63.991254 329 37885ft 454kts
03-Feb-18 01:19 -19.491458 -64.059557 329 37885ft 454kts
03-Feb-18 01:20 -19.383364 -64.127940 329 37885ft 454kts
03-Feb-18 01:21 -19.275243 -64.196349 329 37885ft 454kts
03-Feb-18 01:22 -19.166979 -64.264866 329 37885ft 454kts
03-Feb-18 01:23 -19.059097 -64.333160 328 37886ft 454kts
03-Feb-18 01:24 -18.950689 -64.401808 329 37886ft 455kts
03-Feb-18 01:25 -18.845661 -64.468329 329 37885ft 455kts
03-Feb-18 01:26 -18.737386 -64.536921 329 37886ft 455kts
03-Feb-18 01:27 -18.629769 -64.605115 329 37942ft 455kts
03-Feb-18 01:28 -18.523111 -64.672805 329 38046ft 455kts
03-Feb-18 01:29 -18.414885 -64.741324 329 38155ft 455kts
03-Feb-18 01:30 -18.306518 -64.809880 329 38261ft 455kts
03-Feb-18 01:31 -18.198815 -64.878035 329 38263ft 453kts
03-Feb-18 01:32 -18.091452 -64.945981 330 38262ft 450kts
03-Feb-18 01:33 -17.985215 -65.013226 330 38262ft 444kts
03-Feb-18 01:34 -17.880676 -65.079412 330 38265ft 442kts
03-Feb-18 01:35 -17.775859 -65.145794 330 38264ft 442kts
03-Feb-18 01:36 -17.670908 -65.212277 330 38264ft 442kts
03-Feb-18 01:37 -17.565895 -65.278896 330 38264ft 442kts
03-Feb-18 01:38 -17.461144 -65.345328 330 38264ft 442kts
03-Feb-18 01:39 -17.355889 -65.411963 330 38263ft 442kts
03-Feb-18 01:40 -17.250900 -65.478383 330 38263ft 442kts
03-Feb-18 01:41 -17.146047 -65.544727 330 38263ft 442kts
03-Feb-18 01:42 -17.040635 -65.611488 329 38265ft 451kts
03-Feb-18 01:43 -16.935292 -65.678240 329 38262ft 453kts
03-Feb-18 01:44 -16.827499 -65.744293 339 38250ft 452kts
03-Feb-18 01:45 -16.707484 -65.782069 344 38262ft 452kts
03-Feb-18 01:46 -16.587319 -65.819294 343 38263ft 452kts
03-Feb-18 01:47 -16.467448 -65.856535 343 38263ft 452kts
03-Feb-18 01:48 -16.347336 -65.893866 343 38263ft 452kts
03-Feb-18 01:49 -16.227084 -65.931245 343 38263ft 452kts
03-Feb-18 01:50 -16.107293 -65.968483 343 38263ft 452kts
03-Feb-18 01:51 -15.987131 -66.005840 343 38263ft 452kts
03-Feb-18 01:52 -15.867504 -66.043034 343 38262ft 452kts
03-Feb-18 01:53 -15.747580 -66.080323 343 38263ft 452kts
03-Feb-18 01:54 -15.627422 -66.117687 343 38263ft 452kts
03-Feb-18 01:55 -15.507532 -66.154970 343 38263ft 452kts
03-Feb-18 01:56 -15.387490 -66.191872 345 38263ft 452kts
03-Feb-18 01:57 -15.266127 -66.224297 346 38263ft 452kts
03-Feb-18 01:58 -15.144632 -66.255539 346 38251ft 452kts
03-Feb-18 01:59 -15.023201 -66.286714 346 38217ft 452kts
03-Feb-18 02:00 -14.901320 -66.318065 347 38184ft 452kts
03-Feb-18 02:01 -14.779870 -66.349345 347 38071ft 452kts
03-Feb-18 02:02 -14.658614 -66.380642 347 38001ft 452kts
03-Feb-18 02:03 -14.536576 -66.412205 347 38000ft 452kts
03-Feb-18 02:04 -14.415160 -66.443665 347 38001ft 452kts
03-Feb-18 02:05 -14.293464 -66.475260 346 38001ft 452kts
03-Feb-18 02:06 -14.171964 -66.506863 346 38001ft 452kts
03-Feb-18 02:07 -14.050284 -66.538574 346 38001ft 452kts
03-Feb-18 02:08 -13.928956 -66.570252 346 38001ft 452kts
03-Feb-18 02:09 -13.807704 -66.601970 346 38001ft 452kts
03-Feb-18 02:10 -13.686130 -66.633832 346 38001ft 452kts
03-Feb-18 02:11 -13.565321 -66.665552 347 37999ft 452kts
03-Feb-18 02:12 -13.443703 -66.697544 347 37833ft 457kts
03-Feb-18 02:13 -13.321506 -66.729747 347 37848ft 455kts
03-Feb-18 02:14 -13.199323 -66.762006 346 37857ft 455kts
03-Feb-18 02:15 -13.077361 -66.794259 346 37858ft 455kts
03-Feb-18 02:16 -12.954835 -66.826724 346 37856ft 455kts
03-Feb-18 02:17 -12.833674 -66.858898 346 37859ft 455kts
03-Feb-18 02:18 -12.711286 -66.891436 345 37856ft 455kts
03-Feb-18 02:19 -12.589193 -66.923971 346 37857ft 455kts
03-Feb-18 02:20 -12.467411 -66.956476 346 37858ft 455kts
03-Feb-18 02:22 -12.345261 -66.989145 346 37854ft 455kts
03-Feb-18 02:23 -12.222823 -67.021928 346 37858ft 456kts
03-Feb-18 02:24 -12.100543 -67.054752 346 37861ft 456kts
03-Feb-18 02:24 -11.998433 -67.082192 346 37860ft 456kts
03-Feb-18 02:26 -11.856048 -67.120531 346 37861ft 457kts
03-Feb-18 02:27 -11.733243 -67.153658 346 37856ft 457kts
03-Feb-18 02:27 -11.631217 -67.181231 346 37858ft 457kts
03-Feb-18 02:28 -11.509147 -67.214256 346 37860ft 457kts
03-Feb-18 02:30 -11.366369 -67.252959 346 37857ft 457kts
03-Feb-18 02:30 -11.264242 -67.280690 346 37859ft 457kts
03-Feb-18 02:31 -11.142007 -67.313943 346 37855ft 457kts
03-Feb-18 02:33 -10.999107 -67.352895 346 37861ft 457kts
03-Feb-18 02:33 -10.897694 -67.380593 347 37859ft 453kts
03-Feb-18 02:34 -10.777010 -67.413580 347 37858ft 452kts
03-Feb-18 02:35 -10.655629 -67.446802 347 37858ft 452kts
03-Feb-18 02:36 -10.534627 -67.480000 347 37863ft 452kts
03-Feb-18 02:37 -10.413433 -67.513293 347 37864ft 452kts
03-Feb-18 02:38 -10.292659 -67.546538 347 37862ft 452kts
03-Feb-18 02:39 -10.171461 -67.579949 347 37862ft 452kts
03-Feb-18 02:40 -10.050653 -67.613305 347 37858ft 452kts
03-Feb-18 02:41 -9.929355 -67.646843 347 37862ft 452kts
03-Feb-18 02:42 -9.809148 -67.680140 347 37855ft 452kts
03-Feb-18 02:43 -9.688193 -67.713718 347 37858ft 452kts
03-Feb-18 02:44 -9.567223 -67.747314 347 37857ft 452kts
03-Feb-18 02:45 -9.446324 -67.780974 347 37857ft 452kts
03-Feb-18 02:46 -9.325271 -67.814734 347 37854ft 452kts
03-Feb-18 02:47 -9.204596 -67.848407 347 37853ft 452kts
03-Feb-18 02:48 -9.083772 -67.882203 347 37859ft 452kts
03-Feb-18 02:49 -8.963597 -67.915857 347 37857ft 448kts
03-Feb-18 02:50 -8.845582 -67.948959 347 37859ft 448kts
03-Feb-18 02:51 -8.725569 -67.982667 347 37858ft 448kts
03-Feb-18 02:52 -8.606040 -68.016302 347 37857ft 449kts
03-Feb-18 02:53 -8.485933 -68.050145 347 37855ft 449kts
03-Feb-18 02:54 -8.366218 -68.083931 347 37858ft 449kts
03-Feb-18 02:55 -8.246383 -68.117803 347 37857ft 449kts
03-Feb-18 02:56 -8.126840 -68.151635 347 37856ft 448kts
03-Feb-18 02:57 -8.006856 -68.185648 346 37858ft 448kts
03-Feb-18 02:58 -7.887611 -68.219492 346 37857ft 448kts
03-Feb-18 02:59 -7.767861 -68.253545 346 37860ft 448kts
03-Feb-18 03:00 -7.648323 -68.287580 346 37859ft 448kts
03-Feb-18 03:01 -7.528475 -68.321747 346 37858ft 448kts
03-Feb-18 03:02 -7.408836 -68.355908 346 37855ft 449kts
03-Feb-18 03:03 -7.289416 -68.390072 346 37859ft 448kts
03-Feb-18 03:04 -7.169642 -68.424374 346 37859ft 448kts
03-Feb-18 03:05 -7.049627 -68.458785 346 37860ft 448kts
03-Feb-18 03:06 -6.930386 -68.493021 346 37862ft 446kts
03-Feb-18 03:07 -6.811855 -68.527116 346 37864ft 445kts
03-Feb-18 03:08 -6.692717 -68.561429 346 37865ft 445kts
03-Feb-18 03:09 -6.574024 -68.595660 346 37865ft 446kts
03-Feb-18 03:10 -6.455262 -68.629959 346 37865ft 445kts
03-Feb-18 03:11 -6.337856 -68.663913 346 37860ft 445kts
03-Feb-18 03:12 -6.219240 -68.698261 346 37860ft 446kts
03-Feb-18 03:13 -6.100565 -68.732675 346 37869ft 445kts
03-Feb-18 03:14 -5.981738 -68.767179 346 37870ft 445kts
03-Feb-18 03:15 -5.863402 -68.801587 346 37871ft 446kts
03-Feb-18 03:16 -5.744567 -68.836188 346 37871ft 445kts
03-Feb-18 03:17 -5.625904 -68.870783 346 37871ft 445kts
03-Feb-18 03:18 -5.506983 -68.905501 346 37871ft 446kts
03-Feb-18 03:19 -5.388299 -68.940195 346 37871ft 446kts
03-Feb-18 03:20 -5.269493 -68.974972 346 37871ft 447kts
03-Feb-18 03:21 -5.150153 -69.009949 346 37871ft 448kts
03-Feb-18 03:22 -5.030883 -69.044949 346 37871ft 449kts
03-Feb-18 03:23 -4.911496 -69.080031 345 37872ft 449kts
03-Feb-18 03:24 -4.792294 -69.115110 345 37870ft 448kts
03-Feb-18 03:25 -4.673187 -69.150201 345 37873ft 448kts
03-Feb-18 03:26 -4.553914 -69.185371 345 37872ft 448kts
03-Feb-18 03:27 -4.434896 -69.220525 345 37870ft 448kts
03-Feb-18 03:28 -4.315865 -69.255752 345 37871ft 447kts
03-Feb-18 03:29 -4.196911 -69.290970 345 37873ft 448kts
03-Feb-18 03:30 -4.077891 -69.326250 345 37878ft 448kts
03-Feb-18 03:31 -3.958402 -69.361709 345 37870ft 448kts
03-Feb-18 03:32 -3.839744 -69.396990 345 37875ft 448kts
03-Feb-18 03:33 -3.720672 -69.432438 345 37874ft 448kts
03-Feb-18 03:34 -3.601412 -69.467967 345 37871ft 448kts
03-Feb-18 03:35 -3.482250 -69.503503 345 37873ft 448kts
03-Feb-18 03:36 -3.363354 -69.539019 345 37876ft 448kts
03-Feb-18 03:37 -3.244201 -69.574653 345 37870ft 448kts
03-Feb-18 03:38 -3.125350 -69.610243 345 37869ft 448kts
03-Feb-18 03:39 -3.006036 -69.646004 345 37871ft 449kts
03-Feb-18 03:40 -2.885751 -69.682091 344 37872ft 458kts
03-Feb-18 03:41 -2.764276 -69.718601 344 37867ft 458kts
03-Feb-18 03:42 -2.642308 -69.755303 344 37873ft 458kts
03-Feb-18 03:43 -2.520651 -69.791943 344 37870ft 458kts
03-Feb-18 03:44 -2.399192 -69.828571 344 37871ft 458kts
03-Feb-18 03:45 -2.277543 -69.865297 344 37870ft 458kts
03-Feb-18 03:46 -2.155729 -69.902121 344 37873ft 458kts
03-Feb-18 03:47 -2.034343 -69.938862 344 37872ft 458kts
03-Feb-18 03:48 -1.912686 -69.975716 344 37872ft 458kts
03-Feb-18 03:49 -1.791000 -70.012622 344 37871ft 458kts
03-Feb-18 03:50 -1.669633 -70.049482 344 37873ft 458kts
03-Feb-18 03:51 -1.547921 -70.086482 344 37872ft 458kts
03-Feb-18 03:52 -1.426653 -70.123389 344 37873ft 458kts
03-Feb-18 03:53 -1.304778 -70.160525 344 37873ft 458kts
03-Feb-18 03:54 -1.183168 -70.197623 344 37873ft 458kts
03-Feb-18 03:55 -1.061869 -70.234654 344 37875ft 458kts
03-Feb-18 03:56 -0.940686 -70.271703 343 37874ft 455kts
03-Feb-18 03:57 -0.819797 -70.308719 343 37874ft 456kts
03-Feb-18 03:58 -0.699263 -70.345641 343 37870ft 456kts
03-Feb-18 03:59 -0.578400 -70.382709 343 37872ft 456kts
03-Feb-18 04:00 -0.457465 -70.419851 343 37873ft 455kts
03-Feb-18 04:01 -0.336651 -70.456984 343 37870ft 455kts
03-Feb-18 04:02 -0.216171 -70.494059 343 37874ft 456kts
03-Feb-18 04:03 -0.095246 -70.531309 343 37874ft 455kts
03-Feb-18 04:04 0.025481 -70.568533 343 37874ft 456kts
03-Feb-18 04:05 0.146024 -70.605746 343 37871ft 456kts
03-Feb-18 04:06 0.266956 -70.643123 343 37871ft 455kts
03-Feb-18 04:07 0.387362 -70.680365 343 37872ft 456kts
03-Feb-18 04:08 0.508270 -70.717797 343 37869ft 456kts
03-Feb-18 04:09 0.628834 -70.755168 343 37871ft 456kts
03-Feb-18 04:10 0.749823 -70.792701 343 37872ft 456kts
03-Feb-18 04:11 0.870457 -70.830166 343 38047ft 457kts
03-Feb-18 04:12 0.992170 -70.867996 342 38305ft 462kts
03-Feb-18 04:13 1.113096 -70.905582 340 38110ft 470kts
03-Feb-18 04:14 1.236383 -70.944029 339 37958ft 466kts
03-Feb-18 04:15 1.360367 -70.982709 339 37951ft 469kts
03-Feb-18 04:16 1.484838 -71.021544 339 37951ft 470kts
03-Feb-18 04:17 1.609578 -71.060525 338 37949ft 471kts
03-Feb-18 04:18 1.734049 -71.099466 338 37955ft 471kts
03-Feb-18 04:19 1.858840 -71.138514 338 37958ft 471kts
03-Feb-18 04:20 1.983473 -71.177573 338 37959ft 471kts
03-Feb-18 04:21 2.107846 -71.216593 338 37956ft 471kts
03-Feb-18 04:22 2.232328 -71.255672 338 37949ft 471kts
03-Feb-18 04:23 2.357327 -71.294949 338 37951ft 471kts
03-Feb-18 04:24 2.481604 -71.334049 338 37951ft 471kts
03-Feb-18 04:25 2.606535 -71.373384 338 37955ft 471kts
03-Feb-18 04:26 2.731204 -71.412670 338 37956ft 471kts
03-Feb-18 04:27 2.855377 -71.451849 338 37954ft 471kts
03-Feb-18 04:28 2.980008 -71.491200 338 37959ft 472kts
03-Feb-18 04:29 3.104612 -71.530581 338 37955ft 472kts
03-Feb-18 04:30 3.229192 -71.569990 338 37948ft 472kts
03-Feb-18 04:31 3.354098 -71.609536 338 37949ft 472kts
03-Feb-18 04:32 3.479166 -71.649169 338 37950ft 472kts
03-Feb-18 04:33 3.602644 -71.688331 338 37957ft 472kts
03-Feb-18 04:34 3.727580 -71.727991 338 37958ft 472kts
03-Feb-18 04:35 3.852268 -71.767611 338 37958ft 472kts
03-Feb-18 04:37 3.977020 -71.807283 338 37959ft 472kts
03-Feb-18 04:38 4.101640 -71.846949 338 37960ft 472kts
03-Feb-18 04:39 4.222362 -71.885406 338 37952ft 472kts
03-Feb-18 04:40 4.346757 -71.925067 338 37953ft 472kts
03-Feb-18 04:41 4.471654 -71.964921 338 37954ft 472kts
03-Feb-18 04:42 4.596549 -72.004808 338 37954ft 472kts
03-Feb-18 04:42 4.700205 -72.037939 338 37955ft 472kts
03-Feb-18 04:43 4.825079 -72.077880 338 37957ft 472kts
03-Feb-18 04:45 4.970333 -72.124383 338 37958ft 472kts
03-Feb-18 04:46 5.094069 -72.164006 337 37957ft 464kts
03-Feb-18 04:46 5.193429 -72.195882 337 37950ft 462kts
03-Feb-18 04:47 5.315530 -72.235069 337 37950ft 462kts
03-Feb-18 04:48 5.437758 -72.274321 337 37951ft 462kts
03-Feb-18 04:50 5.580309 -72.320138 337 38015ft 462kts
03-Feb-18 04:50 5.682343 -72.352958 337 38035ft 463kts
03-Feb-18 04:51 5.804410 -72.392247 337 38035ft 462kts
03-Feb-18 04:52 5.926425 -72.431551 337 38036ft 462kts
03-Feb-18 04:53 6.048700 -72.470967 337 38036ft 462kts
03-Feb-18 04:54 6.167365 -72.509248 337 38029ft 462kts
03-Feb-18 04:55 6.289444 -72.548660 337 38030ft 462kts
03-Feb-18 04:56 6.411824 -72.588197 337 38030ft 462kts
03-Feb-18 04:57 6.533691 -72.627597 337 38031ft 462kts
03-Feb-18 04:58 6.655144 -72.666889 337 38041ft 462kts
03-Feb-18 04:59 6.777039 -72.706353 337 38041ft 462kts
03-Feb-18 05:00 6.898938 -72.745848 337 38041ft 462kts
03-Feb-18 05:01 7.021016 -72.785433 337 38041ft 461kts
03-Feb-18 05:02 7.140309 -72.824133 337 38034ft 461kts
03-Feb-18 05:03 7.262070 -72.863664 337 38036ft 461kts
03-Feb-18 05:04 7.383555 -72.903132 337 38036ft 461kts
03-Feb-18 05:05 7.505185 -72.942674 337 38034ft 461kts
03-Feb-18 05:06 7.626728 -72.982215 337 38023ft 461kts
03-Feb-18 05:07 7.748721 -73.021930 337 38015ft 462kts
03-Feb-18 05:08 7.870562 -73.061620 337 38011ft 462kts
03-Feb-18 05:09 7.992814 -73.101470 337 38011ft 463kts
03-Feb-18 05:10 8.113460 -73.140823 337 38008ft 463kts
03-Feb-18 05:11 8.235846 -73.180771 337 38005ft 464kts
03-Feb-18 05:12 8.358299 -73.220756 337 38008ft 464kts
03-Feb-18 05:13 8.480972 -73.260854 337 38006ft 465kts
03-Feb-18 05:14 8.603241 -73.300835 337 38025ft 465kts
03-Feb-18 05:15 8.725726 -73.340914 337 38028ft 464kts
03-Feb-18 05:16 8.848432 -73.381091 337 38028ft 465kts
03-Feb-18 05:17 8.970995 -73.421239 337 38026ft 464kts
03-Feb-18 05:18 9.094057 -73.461589 337 38015ft 468kts
03-Feb-18 05:19 9.215758 -73.501505 337 38003ft 469kts
03-Feb-18 05:20 9.339689 -73.542178 337 38003ft 469kts
03-Feb-18 05:21 9.463517 -73.582842 337 38004ft 469kts
03-Feb-18 05:22 9.587430 -73.623559 337 38005ft 469kts
03-Feb-18 05:23 9.710416 -73.663991 337 38014ft 469kts
03-Feb-18 05:24 9.834297 -73.704737 337 38014ft 469kts
03-Feb-18 05:25 9.958054 -73.745475 337 38015ft 469kts
03-Feb-18 05:26 10.081980 -73.786286 337 38015ft 469kts
03-Feb-18 05:27 10.204315 -73.826597 337 38007ft 469kts
03-Feb-18 05:28 10.328140 -73.867423 337 38008ft 469kts
03-Feb-18 05:29 10.451471 -73.908107 337 37992ft 469kts
03-Feb-18 05:30 10.575326 -73.948986 337 37921ft 469kts
03-Feb-18 05:31 10.699267 -73.989917 337 37919ft 469kts
03-Feb-18 05:32 10.823059 -74.030817 337 37920ft 470kts
03-Feb-18 05:33 10.946739 -74.071697 337 37920ft 468kts
03-Feb-18 05:34 11.069724 -74.112372 337 37919ft 465kts
03-Feb-18 05:35 11.190662 -74.152400 337 37914ft 465kts
03-Feb-18 05:36 11.313700 -74.193128 336 37913ft 465kts
03-Feb-18 05:37 11.436315 -74.233752 336 37915ft 465kts
03-Feb-18 05:38 11.559121 -74.274452 337 37918ft 465kts
03-Feb-18 05:39 11.681816 -74.315128 337 37918ft 465kts
03-Feb-18 05:40 11.804604 -74.355861 337 37913ft 465kts
03-Feb-18 05:41 11.927340 -74.396588 337 37916ft 465kts
03-Feb-18 05:42 12.049982 -74.437301 337 37919ft 465kts
03-Feb-18 05:43 12.172857 -74.478127 337 37913ft 465kts
03-Feb-18 05:44 12.295647 -74.518939 337 37911ft 466kts
03-Feb-18 05:45 12.418203 -74.559684 337 37910ft 466kts
03-Feb-18 05:46 12.540818 -74.600466 337 37913ft 465kts
03-Feb-18 05:47 12.663688 -74.641342 337 37910ft 465kts
03-Feb-18 05:48 12.786764 -74.682315 336 37921ft 465kts
03-Feb-18 05:49 12.909457 -74.723174 336 37922ft 465kts
03-Feb-18 05:50 13.031719 -74.763898 336 37923ft 460kts
03-Feb-18 05:51 13.152217 -74.804060 336 37916ft 453kts
03-Feb-18 05:52 13.271749 -74.843931 336 37917ft 454kts
03-Feb-18 05:53 13.391443 -74.883859 336 37918ft 454kts
03-Feb-18 05:54 13.511409 -74.923897 336 37918ft 454kts
03-Feb-18 05:55 13.631230 -74.963896 337 37918ft 454kts
03-Feb-18 05:56 13.750928 -75.003869 337 37919ft 454kts
03-Feb-18 05:57 13.870899 -75.043951 337 37919ft 454kts
03-Feb-18 05:58 13.990590 -75.083950 337 37919ft 454kts
03-Feb-18 05:59 14.110070 -75.123896 337 37917ft 454kts
03-Feb-18 06:00 14.229768 -75.163924 337 37914ft 454kts
03-Feb-18 06:01 14.349947 -75.204129 337 37915ft 454kts
03-Feb-18 06:02 14.469717 -75.244213 337 37915ft 454kts
03-Feb-18 06:03 14.589362 -75.284267 337 37924ft 454kts
03-Feb-18 06:04 14.709085 -75.324361 337 38023ft 454kts
03-Feb-18 06:05 14.829202 -75.364601 337 38046ft 454kts
03-Feb-18 06:06 14.948896 -75.404697 337 38045ft 451kts
03-Feb-18 06:07 15.067034 -75.444292 336 38044ft 446kts
03-Feb-18 06:08 15.184799 -75.483796 336 38041ft 447kts
03-Feb-18 06:09 15.302781 -75.523369 336 38041ft 447kts
03-Feb-18 06:10 15.420816 -75.562971 337 38041ft 447kts
03-Feb-18 06:11 15.538434 -75.602443 337 38041ft 447kts
03-Feb-18 06:12 15.656248 -75.641994 337 38041ft 447kts
03-Feb-18 06:13 15.774375 -75.681660 336 38051ft 446kts
03-Feb-18 06:14 15.891940 -75.721149 336 38051ft 447kts
03-Feb-18 06:15 16.009802 -75.760747 336 38051ft 446kts
03-Feb-18 06:16 16.125541 -75.799642 336 38047ft 447kts
03-Feb-18 06:17 16.243429 -75.839270 336 38047ft 447kts
03-Feb-18 06:18 16.361324 -75.878909 336 38047ft 447kts
03-Feb-18 06:19 16.479370 -75.918609 336 38047ft 447kts
03-Feb-18 06:20 16.597403 -75.958315 336 38048ft 447kts
03-Feb-18 06:21 16.715158 -75.997936 336 38048ft 447kts
03-Feb-18 06:22 16.832987 -76.037591 336 38048ft 447kts
03-Feb-18 06:23 16.950921 -76.077290 336 38048ft 447kts
03-Feb-18 06:24 17.068719 -76.116946 336 38048ft 445kts
03-Feb-18 06:25 17.185190 -76.156177 336 38044ft 444kts
03-Feb-18 06:26 17.302160 -76.195582 336 38044ft 444kts
03-Feb-18 06:27 17.419755 -76.235201 336 38044ft 444kts
03-Feb-18 06:28 17.536697 -76.274607 336 38044ft 444kts
03-Feb-18 06:29 17.653971 -76.314133 336 38044ft 444kts
03-Feb-18 06:30 17.771268 -76.353674 336 38044ft 444kts
03-Feb-18 06:31 17.888630 -76.393244 336 38044ft 444kts
03-Feb-18 06:32 18.005609 -76.432692 336 38044ft 444kts
03-Feb-18 06:33 18.122157 -76.472002 336 38041ft 444kts
03-Feb-18 06:34 18.239406 -76.511554 336 38041ft 444kts
03-Feb-18 06:35 18.357015 -76.551235 336 38041ft 444kts
03-Feb-18 06:36 18.474276 -76.590804 336 38041ft 444kts
03-Feb-18 06:37 18.591735 -76.630447 336 38041ft 444kts
03-Feb-18 06:38 18.708588 -76.669891 336 38051ft 444kts
03-Feb-18 06:39 18.826226 -76.709606 336 38051ft 444kts
03-Feb-18 06:40 18.943406 -76.749171 336 38050ft 442kts
03-Feb-18 06:41 19.059713 -76.788450 336 38052ft 439kts
03-Feb-18 06:42 19.174830 -76.827334 336 38105ft 440kts
03-Feb-18 06:43 19.291090 -76.866602 336 38115ft 440kts
03-Feb-18 06:44 19.407318 -76.905863 336 38110ft 441kts
03-Feb-18 06:45 19.523814 -76.945220 337 38126ft 442kts
03-Feb-18 06:46 19.640810 -76.984749 337 38128ft 442kts
03-Feb-18 06:47 19.758096 -77.024382 337 38128ft 443kts
03-Feb-18 06:48 19.875301 -77.063990 337 38128ft 443kts
03-Feb-18 06:49 19.992484 -77.103595 337 38128ft 443kts
03-Feb-18 06:50 20.109133 -77.143026 337 38127ft 443kts
03-Feb-18 06:52 20.226323 -77.182640 337 38125ft 443kts
03-Feb-18 06:53 20.343697 -77.222321 337 38125ft 443kts
03-Feb-18 06:54 20.460949 -77.261962 337 38125ft 443kts
03-Feb-18 06:55 20.578135 -77.301583 337 38155ft 443kts
03-Feb-18 06:56 20.695381 -77.341229 337 38179ft 444kts
03-Feb-18 06:56 20.793062 -77.374257 337 38179ft 444kts
03-Feb-18 06:58 20.930308 -77.420672 337 38179ft 444kts
03-Feb-18 06:58 21.027630 -77.453571 337 38178ft 441kts
03-Feb-18 06:59 21.141652 -77.492129 336 38175ft 435kts
03-Feb-18 07:01 21.275809 -77.537521 336 38175ft 435kts
03-Feb-18 07:02 21.390810 -77.576418 336 38175ft 435kts
03-Feb-18 07:02 21.487034 -77.608964 336 38175ft 435kts
03-Feb-18 07:03 21.602263 -77.647938 336 38175ft 435kts
03-Feb-18 07:04 21.716715 -77.686662 336 38186ft 435kts
03-Feb-18 07:05 21.831675 -77.725550 336 38186ft 435kts
03-Feb-18 07:06 21.946827 -77.764501 336 38185ft 435kts
03-Feb-18 07:07 22.062011 -77.803462 336 38185ft 435kts
03-Feb-18 07:08 22.177200 -77.842425 336 38183ft 435kts
03-Feb-18 07:09 22.292504 -77.881427 336 38183ft 435kts
03-Feb-18 07:10 22.407382 -77.920284 336 38183ft 435kts
03-Feb-18 07:11 22.522978 -77.959383 336 38182ft 435kts
03-Feb-18 07:12 22.638222 -77.998362 336 38182ft 435kts
03-Feb-18 07:13 22.753519 -78.037358 336 38182ft 435kts
03-Feb-18 07:14 22.868540 -78.076260 336 38182ft 435kts
03-Feb-18 07:15 22.983720 -78.115213 336 38208ft 433kts
03-Feb-18 07:16 23.097769 -78.153784 337 38207ft 431kts
03-Feb-18 07:17 23.211200 -78.192145 337 38207ft 431kts
03-Feb-18 07:18 23.325503 -78.230797 337 38206ft 431kts
03-Feb-18 07:19 23.439683 -78.269405 337 38206ft 431kts
03-Feb-18 07:20 23.553621 -78.307930 337 38205ft 431kts
03-Feb-18 07:21 23.667926 -78.346576 337 38205ft 431kts
03-Feb-18 07:22 23.782323 -78.385251 337 38205ft 431kts
03-Feb-18 07:23 23.896583 -78.423876 337 38216ft 431kts
03-Feb-18 07:24 24.008094 -78.467309 321 38246ft 419kts
03-Feb-18 07:25 24.097466 -78.547238 315 38244ft 416kts
03-Feb-18 07:26 24.184109 -78.626522 315 38249ft 416kts
03-Feb-18 07:27 24.247960 -78.684971 315 38260ft 415kts
03-Feb-18 07:28 24.336511 -78.765993 315 38258ft 415kts
03-Feb-18 07:29 24.425179 -78.847069 315 38257ft 415kts
03-Feb-18 07:30 24.513514 -78.927801 315 38257ft 416kts
03-Feb-18 07:31 24.602021 -79.008655 315 38259ft 415kts
03-Feb-18 07:32 24.690547 -79.089490 315 38264ft 415kts
03-Feb-18 07:33 24.779269 -79.170467 315 38269ft 414kts
03-Feb-18 07:34 24.867616 -79.251043 316 38269ft 411kts
03-Feb-18 07:35 24.948667 -79.324327 315 37027ft 365kts
03-Feb-18 07:36 25.026930 -79.395363 315 34627ft 367kts
03-Feb-18 07:37 25.102918 -79.464476 315 32302ft 372kts
03-Feb-18 07:38 25.171257 -79.526762 315 30243ft 378kts
03-Feb-18 07:39 25.252946 -79.601363 315 27843ft 386kts
03-Feb-18 07:40 25.327550 -79.669638 315 25711ft 392kts
03-Feb-18 07:41 25.386724 -79.723981 314 24189ft 396kts
03-Feb-18 07:42 25.451440 -79.817844 303 22066ft 398kts
03-Feb-18 07:43 25.516062 -79.916116 303 19979ft 405kts
03-Feb-18 07:44 25.582779 -80.017534 303 17993ft 412kts
03-Feb-18 07:45 25.646472 -80.114470 304 16008ft 367kts
03-Feb-18 07:46 25.681921 -80.212200 285 14014ft 347kts
03-Feb-18 07:47 25.706669 -80.307092 285 12056ft 308kts
03-Feb-18 07:48 25.707168 -80.392265 267 11199ft 267kts
03-Feb-18 07:49 25.703327 -80.470334 269 8344ft 241kts
03-Feb-18 07:50 25.700007 -80.543025 275 4675ft 233kts
03-Feb-18 07:51 25.741183 -80.560091 54 3483ft 201kts
03-Feb-18 07:52 25.766192 -80.504016 63 3460ft 205kts
03-Feb-18 07:53 25.780416 -80.444967 86 2252ft 198kts
03-Feb-18 07:54 25.782823 -80.391008 86 1330ft 150kts
03-Feb-18 07:55 25.784558 -80.350732 86 656ft 134kts
03-Feb-18 07:56 25.786240 -80.311573 86 76ft 131kts
03-Feb-18 07:57 25.787372 -80.288018 75 14ft 32kts
03-Feb-18 07:58 25.792417 -80.284469 296 14ft 15kts
03-Feb-18 07:59 25.794743 -80.284614 63 14ft 4kts
03-Feb-18 08:00 25.794760 -80.284577 63 14ft 0kts
03-Feb-18 08:01 25.794760 -80.284577 63 14ft 0kts

Navigation Log

Ident Type
Flight plan parsing failed, navigation log unavailable